Time;durP1;ratioP1;P1;durP2;ratioP2;P2;SDS_P1;SDS_P2;PMS_P1;PMS_P2;Temp;Humidity;BMP_temperature;BMP_pressure;BME280_temperature;BME280_humidity;BME280_pressure;Samples;Min_cycle;Max_cycle;Signal;HPM_P1;HPM_P2
2023/12/19 00:01:07;;;;;;;31.83;13.53;;;;;;;;;;5034330;28;20473;-81
2023/12/19 00:03:33;;;;;;;24.50;11.48;;;;;;;;;;5034309;28;20266;-80
2023/12/19 00:05:58;;;;;;;26.65;12.65;;;;;;;;;;5018587;28;20022;-80
2023/12/19 00:08:23;;;;;;;26.57;12.20;;;;;;;;;;5032077;28;20389;-80
2023/12/19 00:10:48;;;;;;;20.30;10.83;;;;;;;;;;5034537;28;20294;-80
2023/12/19 00:13:14;;;;;;;23.00;13.27;;;;;;;;;;5034169;28;20267;-80
2023/12/19 00:15:39;;;;;;;21.23;11.57;;;;;;;;;;5032065;28;20309;-80
2023/12/19 00:18:04;;;;;;;19.17;10.57;;;;;;;;;;5034265;28;20048;-80
2023/12/19 00:20:30;;;;;;;26.20;12.00;;;;;;;;;;5032588;28;20021;-80
2023/12/19 00:22:55;;;;;;;20.70;10.60;;;;;;;;;;5034010;28;20545;-80
2023/12/19 00:25:22;;;;;;;19.30;10.40;;;;;;;;;;5032962;28;20378;-80
2023/12/19 00:27:48;;;;;;;22.63;10.30;;;;;;;;;;5032343;28;20029;-80
2023/12/19 00:30:13;;;;;;;27.25;11.35;;;;;;;;;;5032784;28;20450;-80
2023/12/19 00:32:38;;;;;;;20.88;11.23;;;;;;;;;;5032710;28;20426;-80
2023/12/19 00:35:04;;;;;;;18.50;10.33;;;;;;;;;;5033522;28;20025;-80
2023/12/19 00:37:29;;;;;;;19.92;9.93;;;;;;;;;;5033284;28;20275;-80
2023/12/19 00:39:54;;;;;;;26.00;11.37;;;;;;;;;;5032576;28;20039;-80
2023/12/19 00:42:20;;;;;;;25.33;11.13;;;;;;;;;;5031659;28;20261;-80
2023/12/19 00:44:45;;;;;;;21.43;10.63;;;;;;;;;;5033512;28;20353;-80
2023/12/19 00:47:10;;;;;;;23.43;11.33;;;;;;;;;;5032226;28;20286;-80
2023/12/19 00:49:35;;;;;;;17.93;11.23;;;;;;;;;;5040419;28;20369;-80
2023/12/19 00:52:01;;;;;;;26.42;11.88;;;;;;;;;;5032927;28;20317;-80
2023/12/19 00:54:26;;;;;;;21.05;10.77;;;;;;;;;;5032809;28;20014;-87
2023/12/19 00:56:51;;;;;;;18.57;11.10;;;;;;;;;;5032279;28;20067;-87
2023/12/19 00:59:17;;;;;;;21.33;10.33;;;;;;;;;;5032380;28;20306;-87
2023/12/19 01:01:42;;;;;;;20.00;10.57;;;;;;;;;;5031938;28;20337;-87
2023/12/19 01:04:09;;;;;;;18.73;10.50;;;;;;;;;;5032071;28;20052;-87
2023/12/19 01:06:35;;;;;;;17.98;10.07;;;;;;;;;;5033907;28;20266;-87
2023/12/19 01:09:00;;;;;;;18.75;10.77;;;;;;;;;;5033204;28;20473;-87
2023/12/19 01:11:26;;;;;;;21.90;11.00;;;;;;;;;;5032903;28;20025;-87
2023/12/19 01:13:51;;;;;;;20.90;10.73;;;;;;;;;;5031723;28;20017;-87
2023/12/19 01:16:16;;;;;;;19.85;11.73;;;;;;;;;;5031749;28;20060;-86
2023/12/19 01:18:42;;;;;;;20.88;11.15;;;;;;;;;;5031890;28;20473;-87
2023/12/19 01:21:07;;;;;;;21.55;11.38;;;;;;;;;;5031985;28;20013;-87
2023/12/19 01:23:32;;;;;;;19.08;10.82;;;;;;;;;;5030203;28;20359;-87
2023/12/19 01:25:57;;;;;;;19.77;11.10;;;;;;;;;;5031826;28;20079;-87
2023/12/19 01:28:22;;;;;;;20.63;11.60;;;;;;;;;;5031936;28;20266;-87
2023/12/19 01:30:48;;;;;;;20.02;10.38;;;;;;;;;;5031415;28;20985;-86
2023/12/19 01:33:13;;;;;;;20.00;10.57;;;;;;;;;;5027781;28;20022;-86
2023/12/19 01:35:38;;;;;;;22.47;9.97;;;;;;;;;;5029081;28;20029;-85
2023/12/19 01:38:03;;;;;;;18.53;9.57;;;;;;;;;;5031570;28;20278;-86
2023/12/19 01:40:31;;;;;;;15.98;9.50;;;;;;;;;;5032694;28;20266;-87
2023/12/19 01:42:56;;;;;;;19.00;9.73;;;;;;;;;;5032399;28;20044;-87
2023/12/19 01:45:22;;;;;;;19.60;10.20;;;;;;;;;;5031760;28;20029;-87
2023/12/19 01:47:47;;;;;;;19.95;10.60;;;;;;;;;;5032760;28;20032;-86
2023/12/19 01:50:13;;;;;;;16.92;9.05;;;;;;;;;;5024623;28;20026;-87
2023/12/19 01:52:43;;;;;;;19.58;10.63;;;;;;;;;;5031675;28;20029;-86
2023/12/19 01:55:09;;;;;;;19.20;10.98;;;;;;;;;;5031133;28;20393;-87
2023/12/19 01:57:35;;;;;;;14.95;8.77;;;;;;;;;;5031263;28;20021;-86
2023/12/19 02:00:00;;;;;;;15.50;9.48;;;;;;;;;;5032759;28;20017;-86
2023/12/19 02:02:25;;;;;;;17.13;9.48;;;;;;;;;;5031829;28;20023;-86
2023/12/19 02:04:52;;;;;;;22.35;9.85;;;;;;;;;;5030177;28;20050;-86
2023/12/19 02:07:18;;;;;;;17.10;9.73;;;;;;;;;;5031397;28;20113;-87
2023/12/19 02:09:43;;;;;;;15.15;9.23;;;;;;;;;;5033569;28;20096;-86
2023/12/19 02:14:49;;;;;;;16.58;9.27;;;;;;;;;;3742897;23;20084;-69
2023/12/19 02:17:16;;;;;;;20.85;10.05;;;;;;;;;;5032265;28;20518;-68
2023/12/19 02:19:45;;;;;;;19.65;10.13;;;;;;;;;;5033115;28;20113;-69
2023/12/19 02:22:10;;;;;;;15.00;9.48;;;;;;;;;;5033199;28;20456;-69
2023/12/19 02:24:36;;;;;;;17.08;9.68;;;;;;;;;;5032264;28;20052;-64
2023/12/19 02:27:01;;;;;;;20.00;10.38;;;;;;;;;;5033138;28;20021;-64
2023/12/19 02:29:26;;;;;;;16.67;9.15;;;;;;;;;;5033325;28;20052;-65
2023/12/19 02:31:51;;;;;;;17.33;9.23;;;;;;;;;;5033040;28;20018;-64
2023/12/19 02:34:17;;;;;;;18.53;9.17;;;;;;;;;;5032321;28;20626;-69
2023/12/19 02:36:42;;;;;;;14.40;8.53;;;;;;;;;;5033261;28;20251;-69
2023/12/19 02:39:09;;;;;;;18.83;9.23;;;;;;;;;;5032850;28;20270;-69
2023/12/19 02:41:34;;;;;;;17.08;9.02;;;;;;;;;;5033009;28;20253;-69
2023/12/19 02:43:59;;;;;;;18.20;9.40;;;;;;;;;;5032959;28;20104;-69
2023/12/19 02:46:24;;;;;;;17.60;8.70;;;;;;;;;;5032000;28;20373;-69
2023/12/19 02:48:50;;;;;;;21.53;9.03;;;;;;;;;;5033170;28;20789;-69
2023/12/19 02:51:17;;;;;;;18.75;8.77;;;;;;;;;;5032878;28;20326;-69
2023/12/19 02:53:42;;;;;;;16.75;8.75;;;;;;;;;;5033142;28;20021;-70
2023/12/19 02:56:07;;;;;;;15.07;8.23;;;;;;;;;;5032859;28;20487;-69
2023/12/19 02:58:32;;;;;;;17.10;8.43;;;;;;;;;;5032656;28;20277;-69
2023/12/19 03:00:58;;;;;;;18.10;7.93;;;;;;;;;;5031800;28;20026;-69
2023/12/19 03:03:23;;;;;;;16.33;8.02;;;;;;;;;;5033005;28;20247;-69
2023/12/19 03:05:48;;;;;;;17.07;8.63;;;;;;;;;;5032737;28;20013;-69
2023/12/19 03:08:13;;;;;;;17.73;8.98;;;;;;;;;;5032713;28;20254;-69
2023/12/19 03:10:38;;;;;;;16.90;8.90;;;;;;;;;;5031214;28;20461;-69
2023/12/19 03:13:04;;;;;;;15.30;8.17;;;;;;;;;;5032568;28;20029;-69
2023/12/19 03:15:29;;;;;;;12.07;7.13;;;;;;;;;;5031870;28;20519;-71
2023/12/19 03:17:54;;;;;;;15.70;7.87;;;;;;;;;;5036447;28;20258;-69
2023/12/19 03:20:19;;;;;;;17.00;8.27;;;;;;;;;;5036225;28;20305;-69
2023/12/19 03:22:44;;;;;;;12.00;7.07;;;;;;;;;;5036153;28;20242;-69
2023/12/19 03:25:10;;;;;;;15.23;7.40;;;;;;;;;;5036122;28;20238;-70
2023/12/19 03:27:35;;;;;;;14.50;7.28;;;;;;;;;;5036278;28;20246;-69
2023/12/19 03:30:00;;;;;;;15.67;7.67;;;;;;;;;;5035187;28;20661;-69
2023/12/19 03:32:26;;;;;;;18.20;9.27;;;;;;;;;;5036005;28;20022;-69
2023/12/19 03:34:51;;;;;;;16.03;8.00;;;;;;;;;;5034870;28;20045;-69
2023/12/19 03:37:16;;;;;;;16.13;8.10;;;;;;;;;;5036021;28;20269;-69
2023/12/19 03:39:41;;;;;;;17.80;9.57;;;;;;;;;;5035868;28;20337;-69
2023/12/19 03:42:07;;;;;;;19.35;9.50;;;;;;;;;;5036039;28;20028;-69
2023/12/19 03:44:32;;;;;;;14.68;8.82;;;;;;;;;;5035823;28;20029;-69
2023/12/19 03:46:57;;;;;;;18.60;9.68;;;;;;;;;;5035840;28;20392;-69
2023/12/19 03:49:23;;;;;;;17.25;9.18;;;;;;;;;;5034558;28;20021;-69
2023/12/19 03:51:49;;;;;;;16.93;9.83;;;;;;;;;;5035457;28;20476;-69
2023/12/19 03:54:15;;;;;;;18.60;9.18;;;;;;;;;;5035615;28;20258;-69
2023/12/19 03:56:40;;;;;;;12.80;8.23;;;;;;;;;;5034601;28;20092;-69
2023/12/19 03:59:05;;;;;;;16.02;8.80;;;;;;;;;;5035682;28;20083;-69
2023/12/19 04:01:31;;;;;;;19.80;9.03;;;;;;;;;;5035498;28;20361;-70
2023/12/19 04:03:58;;;;;;;15.30;8.10;;;;;;;;;;5035420;28;20049;-69
2023/12/19 04:06:23;;;;;;;15.70;8.57;;;;;;;;;;5035628;28;20246;-69
2023/12/19 04:08:48;;;;;;;15.67;8.23;;;;;;;;;;5035364;28;20447;-69
2023/12/19 04:11:15;;;;;;;18.00;8.57;;;;;;;;;;5034295;28;20747;-69
2023/12/19 04:13:41;;;;;;;14.10;7.78;;;;;;;;;;5033027;28;20274;-69
2023/12/19 04:16:07;;;;;;;19.40;8.65;;;;;;;;;;5035168;28;20029;-69
2023/12/19 04:18:32;;;;;;;17.25;8.07;;;;;;;;;;5035107;28;20504;-69
2023/12/19 04:20:57;;;;;;;13.87;7.20;;;;;;;;;;5035190;28;20165;-69
2023/12/19 04:23:23;;;;;;;14.70;7.70;;;;;;;;;;5035007;28;20250;-69
2023/12/19 04:25:48;;;;;;;13.93;8.20;;;;;;;;;;5035014;28;20239;-69
2023/12/19 04:28:13;;;;;;;15.77;7.65;;;;;;;;;;5032840;28;20036;-70
2023/12/19 04:30:39;;;;;;;14.00;7.65;;;;;;;;;;5034854;28;20096;-69
2023/12/19 04:33:04;;;;;;;14.50;7.88;;;;;;;;;;5033630;28;20025;-69
2023/12/19 04:35:29;;;;;;;15.70;8.30;;;;;;;;;;5034823;28;20018;-69
2023/12/19 04:37:55;;;;;;;12.90;8.10;;;;;;;;;;5034134;28;20286;-68
2023/12/19 04:40:20;;;;;;;14.20;8.00;;;;;;;;;;5034406;28;20021;-69
2023/12/19 04:42:45;;;;;;;14.53;7.40;;;;;;;;;;5034586;28;20254;-69
2023/12/19 04:45:10;;;;;;;14.60;8.63;;;;;;;;;;5034695;28;20259;-69
2023/12/19 04:47:36;;;;;;;15.30;8.80;;;;;;;;;;5033401;28;20267;-69
2023/12/19 04:50:01;;;;;;;18.88;8.38;;;;;;;;;;5034602;28;20259;-69
2023/12/19 04:52:26;;;;;;;15.10;7.82;;;;;;;;;;5034445;28;20381;-69
2023/12/19 04:54:51;;;;;;;18.60;9.37;;;;;;;;;;5034788;28;20036;-65
2023/12/19 04:57:16;;;;;;;15.48;9.02;;;;;;;;;;5034526;28;20254;-64
2023/12/19 04:59:42;;;;;;;17.77;8.90;;;;;;;;;;5032361;28;20472;-65
2023/12/19 05:02:07;;;;;;;15.18;8.27;;;;;;;;;;5032155;28;20292;-65
2023/12/19 05:04:32;;;;;;;13.95;7.57;;;;;;;;;;5032371;28;20045;-65
2023/12/19 05:06:57;;;;;;;14.90;9.03;;;;;;;;;;5032094;28;20021;-65
2023/12/19 05:09:23;;;;;;;15.38;8.38;;;;;;;;;;5030555;28;20276;-65
2023/12/19 05:11:48;;;;;;;16.85;8.43;;;;;;;;;;5031233;28;20036;-65
2023/12/19 05:14:13;;;;;;;14.02;8.10;;;;;;;;;;5033761;28;20077;-65
2023/12/19 05:16:38;;;;;;;16.25;8.38;;;;;;;;;;5034293;28;20025;-64
2023/12/19 05:19:04;;;;;;;14.93;8.73;;;;;;;;;;5033932;28;20014;-65
2023/12/19 05:21:29;;;;;;;14.45;7.90;;;;;;;;;;5033080;28;20251;-65
2023/12/19 05:23:54;;;;;;;14.30;7.47;;;;;;;;;;5034188;28;20028;-65
2023/12/19 05:26:20;;;;;;;16.73;9.10;;;;;;;;;;5033928;28;20022;-65
2023/12/19 05:28:45;;;;;;;15.50;8.37;;;;;;;;;;5033807;28;20249;-64
2023/12/19 05:31:10;;;;;;;14.40;7.83;;;;;;;;;;5033781;28;20320;-65
2023/12/19 05:33:35;;;;;;;14.43;8.07;;;;;;;;;;5033769;28;20246;-65
2023/12/19 05:36:01;;;;;;;15.02;7.50;;;;;;;;;;5033728;28;20618;-65
2023/12/19 05:38:26;;;;;;;15.68;7.43;;;;;;;;;;5033298;28;20021;-65
2023/12/19 05:40:56;;;;;;;15.13;7.88;;;;;;;;;;5033648;28;20029;-64
2023/12/19 05:43:22;;;;;;;14.70;8.13;;;;;;;;;;5033578;28;20028;-65
2023/12/19 05:45:47;;;;;;;17.58;8.30;;;;;;;;;;5033571;28;20021;-64
2023/12/19 05:48:12;;;;;;;19.47;8.57;;;;;;;;;;5033513;28;20021;-65
2023/12/19 05:50:38;;;;;;;15.18;8.75;;;;;;;;;;5033543;28;20649;-65
2023/12/19 05:53:03;;;;;;;13.38;8.15;;;;;;;;;;5033391;28;20040;-65
2023/12/19 05:55:28;;;;;;;12.73;7.47;;;;;;;;;;5033439;28;20021;-65
2023/12/19 05:57:53;;;;;;;16.60;8.07;;;;;;;;;;5033338;28;20293;-65
2023/12/19 06:00:19;;;;;;;14.77;7.93;;;;;;;;;;5033420;28;20246;-65
2023/12/19 06:02:44;;;;;;;11.98;6.97;;;;;;;;;;5033327;28;20253;-65
2023/12/19 06:05:10;;;;;;;15.50;8.07;;;;;;;;;;5033375;28;20013;-69
2023/12/19 06:07:36;;;;;;;18.23;9.02;;;;;;;;;;5033306;28;20018;-69
2023/12/19 06:10:01;;;;;;;16.73;7.22;;;;;;;;;;5033262;28;20527;-69
2023/12/19 06:12:27;;;;;;;16.65;8.05;;;;;;;;;;5033234;28;20029;-69
2023/12/19 06:14:52;;;;;;;19.10;9.10;;;;;;;;;;5033015;28;20141;-69
2023/12/19 06:17:17;;;;;;;15.63;8.90;;;;;;;;;;5033492;28;20326;-69
2023/12/19 06:19:42;;;;;;;13.87;8.47;;;;;;;;;;5033166;28;20293;-69
2023/12/19 06:22:10;;;;;;;18.23;8.93;;;;;;;;;;5033197;28;20740;-69
2023/12/19 06:24:35;;;;;;;18.45;8.98;;;;;;;;;;5033079;28;20246;-69
2023/12/19 06:27:00;;;;;;;21.15;9.38;;;;;;;;;;5033496;28;20025;-69
2023/12/19 06:29:26;;;;;;;19.98;8.90;;;;;;;;;;5033043;28;20041;-69
2023/12/19 06:31:51;;;;;;;18.77;9.50;;;;;;;;;;5033092;28;20455;-69
2023/12/19 06:34:17;;;;;;;16.97;9.60;;;;;;;;;;5033093;28;20013;-69
2023/12/19 06:36:42;;;;;;;17.92;8.88;;;;;;;;;;5031855;28;20255;-69
2023/12/19 06:39:08;;;;;;;22.63;9.85;;;;;;;;;;5032937;28;20029;-69
2023/12/19 06:41:33;;;;;;;17.77;9.45;;;;;;;;;;5033214;28;20049;-69
2023/12/19 06:43:59;;;;;;;18.90;9.18;;;;;;;;;;5032973;28;20083;-69
2023/12/19 06:46:24;;;;;;;18.02;9.63;;;;;;;;;;5033197;28;20032;-69
2023/12/19 06:48:49;;;;;;;18.58;10.13;;;;;;;;;;5032964;28;20025;-69
2023/12/19 06:51:27;;;;;;;19.37;10.13;;;;;;;;;;5034791;28;20423;-69
2023/12/19 06:53:55;;;;;;;14.07;8.27;;;;;;;;;;5036644;28;20243;-69
2023/12/19 06:56:21;;;;;;;16.98;8.82;;;;;;;;;;5036722;28;20492;-69
2023/12/19 06:58:47;;;;;;;16.85;8.70;;;;;;;;;;5036526;28;20027;-69
2023/12/19 07:01:14;;;;;;;20.23;9.27;;;;;;;;;;5036632;28;20028;-69
2023/12/19 07:03:40;;;;;;;19.85;9.15;;;;;;;;;;5036582;28;20408;-69
2023/12/19 07:06:06;;;;;;;19.52;9.30;;;;;;;;;;5036456;28;20027;-69
2023/12/19 07:08:32;;;;;;;17.33;9.30;;;;;;;;;;5036410;28;20104;-69
2023/12/19 07:10:57;;;;;;;17.73;8.85;;;;;;;;;;5036662;28;20021;-69
2023/12/19 07:13:22;;;;;;;18.60;8.03;;;;;;;;;;5036288;28;20100;-69
2023/12/19 07:15:48;;;;;;;18.27;8.93;;;;;;;;;;5036228;28;20412;-65
2023/12/19 07:18:13;;;;;;;25.27;10.20;;;;;;;;;;5036154;28;20461;-65
2023/12/19 07:20:38;;;;;;;18.30;9.93;;;;;;;;;;5036307;28;20044;-64
2023/12/19 07:23:03;;;;;;;16.27;8.57;;;;;;;;;;5036222;28;20602;-65
2023/12/19 07:25:28;;;;;;;19.37;9.47;;;;;;;;;;5036386;28;20262;-65
2023/12/19 07:27:54;;;;;;;16.60;8.50;;;;;;;;;;5036016;28;20258;-65
2023/12/19 07:30:19;;;;;;;13.18;7.63;;;;;;;;;;5036039;28;20258;-65
2023/12/19 07:32:44;;;;;;;12.77;7.03;;;;;;;;;;5036037;28;20100;-65
2023/12/19 07:35:09;;;;;;;16.67;7.72;;;;;;;;;;5036024;28;20013;-65
2023/12/19 07:37:36;;;;;;;13.80;7.20;;;;;;;;;;5035887;28;20024;-65
2023/12/19 07:40:01;;;;;;;17.20;8.60;;;;;;;;;;5036407;28;20473;-65
2023/12/19 07:42:26;;;;;;;15.18;7.95;;;;;;;;;;5035791;28;20067;-65
2023/12/19 07:44:52;;;;;;;13.18;7.32;;;;;;;;;;5035746;28;20101;-65
2023/12/19 07:47:17;;;;;;;14.70;7.87;;;;;;;;;;5035722;28;20128;-65
2023/12/19 07:49:42;;;;;;;13.05;7.55;;;;;;;;;;5035712;28;20741;-64
2023/12/19 07:52:08;;;;;;;16.17;8.13;;;;;;;;;;5035718;28;20381;-65
2023/12/19 07:54:33;;;;;;;15.50;7.88;;;;;;;;;;5035862;28;20261;-65
2023/12/19 07:56:58;;;;;;;15.88;7.50;;;;;;;;;;5035549;28;20024;-65
2023/12/19 07:59:23;;;;;;;17.00;8.43;;;;;;;;;;5035441;28;20100;-65
2023/12/19 08:01:49;;;;;;;18.65;8.10;;;;;;;;;;5035328;28;20724;-65
2023/12/19 08:04:14;;;;;;;15.50;7.82;;;;;;;;;;5035433;28;20013;-65
2023/12/19 08:06:41;;;;;;;15.40;7.78;;;;;;;;;;5035427;28;20027;-65
2023/12/19 08:09:10;;;;;;;14.52;7.45;;;;;;;;;;5035536;28;20041;-65
2023/12/19 08:11:35;;;;;;;19.17;7.82;;;;;;;;;;5035271;28;20025;-65
2023/12/19 08:14:01;;;;;;;14.30;7.90;;;;;;;;;;5035009;28;20083;-65
2023/12/19 08:16:26;;;;;;;14.07;7.63;;;;;;;;;;5035181;28;20250;-64
2023/12/19 08:18:51;;;;;;;15.07;7.20;;;;;;;;;;5035098;28;20124;-65
2023/12/19 08:21:17;;;;;;;14.50;7.93;;;;;;;;;;5035345;28;20028;-65
2023/12/19 08:23:42;;;;;;;14.38;7.25;;;;;;;;;;5035358;28;20021;-65
2023/12/19 08:26:08;;;;;;;16.30;7.00;;;;;;;;;;5035054;28;20075;-65
2023/12/19 08:28:34;;;;;;;17.20;7.80;;;;;;;;;;5034913;28;20076;-65
2023/12/19 08:30:59;;;;;;;13.07;7.00;;;;;;;;;;5034939;28;20030;-65
2023/12/19 08:33:24;;;;;;;12.55;6.65;;;;;;;;;;5035098;28;20247;-65
2023/12/19 08:35:49;;;;;;;15.80;7.53;;;;;;;;;;5035072;28;20041;-65
2023/12/19 08:38:15;;;;;;;13.27;7.53;;;;;;;;;;5034934;28;20274;-65
2023/12/19 08:40:40;;;;;;;14.53;7.80;;;;;;;;;;5034781;28;20250;-65
2023/12/19 08:43:05;;;;;;;16.33;8.20;;;;;;;;;;5034647;28;20243;-65
2023/12/19 08:45:30;;;;;;;14.60;8.10;;;;;;;;;;5034654;28;20024;-65
2023/12/19 08:47:55;;;;;;;16.85;8.48;;;;;;;;;;5034586;28;20653;-65
2023/12/19 08:50:21;;;;;;;18.63;8.67;;;;;;;;;;5034545;28;20014;-65
2023/12/19 08:52:47;;;;;;;15.98;8.63;;;;;;;;;;5034717;28;20261;-65
2023/12/19 08:55:12;;;;;;;16.98;7.90;;;;;;;;;;5034459;28;20108;-65
2023/12/19 08:57:41;;;;;;;17.33;8.45;;;;;;;;;;5034598;28;20068;-65
2023/12/19 09:00:08;;;;;;;14.50;7.65;;;;;;;;;;5034624;28;20109;-65
2023/12/19 09:02:33;;;;;;;15.10;8.52;;;;;;;;;;5034364;28;20029;-65
2023/12/19 09:04:58;;;;;;;13.40;7.83;;;;;;;;;;5034241;28;20381;-65
2023/12/19 09:07:23;;;;;;;14.70;7.60;;;;;;;;;;5034242;28;20729;-65
2023/12/19 09:09:49;;;;;;;11.43;6.65;;;;;;;;;;5034187;28;20250;-65
2023/12/19 09:12:14;;;;;;;13.88;7.20;;;;;;;;;;5034369;28;20523;-65
2023/12/19 09:14:39;;;;;;;14.23;7.77;;;;;;;;;;5033289;28;20562;-65
2023/12/19 09:17:04;;;;;;;15.73;6.97;;;;;;;;;;5034105;28;20250;-65
2023/12/19 09:19:31;;;;;;;15.27;7.83;;;;;;;;;;5033951;28;20831;-64
2023/12/19 09:21:57;;;;;;;15.35;7.78;;;;;;;;;;5034220;28;20253;-65
2023/12/19 09:24:22;;;;;;;11.07;6.18;;;;;;;;;;5033888;28;20024;-65
2023/12/19 09:26:48;;;;;;;13.30;6.82;;;;;;;;;;5034182;28;20025;-65
2023/12/19 09:29:13;;;;;;;12.13;5.97;;;;;;;;;;5034101;28;20546;-65
2023/12/19 09:31:39;;;;;;;11.48;5.75;;;;;;;;;;5033784;28;20025;-65
2023/12/19 09:34:05;;;;;;;10.98;5.75;;;;;;;;;;5034125;28;20037;-69
2023/12/19 09:36:30;;;;;;;11.55;5.82;;;;;;;;;;5033719;28;20030;-69
2023/12/19 09:38:55;;;;;;;11.60;5.90;;;;;;;;;;5033638;28;20047;-69
2023/12/19 09:41:20;;;;;;;12.23;6.00;;;;;;;;;;5033880;28;20255;-69
2023/12/19 09:43:46;;;;;;;13.52;6.80;;;;;;;;;;5033652;28;20507;-69
2023/12/19 09:46:13;;;;;;;15.52;6.30;;;;;;;;;;5033562;28;20017;-69
2023/12/19 09:48:38;;;;;;;11.93;6.10;;;;;;;;;;5033842;28;20025;-69
2023/12/19 09:51:04;;;;;;;8.40;4.72;;;;;;;;;;5033568;28;20104;-69
2023/12/19 09:53:34;;;;;;;12.38;6.13;;;;;;;;;;5033491;28;20025;-69
2023/12/19 09:56:00;;;;;;;11.40;5.65;;;;;;;;;;5033471;28;20025;-69
2023/12/19 09:58:26;;;;;;;10.15;5.43;;;;;;;;;;5033285;28;20032;-69
2023/12/19 10:00:57;;;;;;;10.45;5.32;;;;;;;;;;5033652;28;20021;-69
2023/12/19 10:03:22;;;;;;;12.32;5.50;;;;;;;;;;5033377;28;20052;-69
2023/12/19 10:05:47;;;;;;;11.50;4.93;;;;;;;;;;5033310;28;20022;-69
2023/12/19 10:08:17;;;;;;;10.63;5.97;;;;;;;;;;5033351;28;20243;-69
2023/12/19 10:10:57;;;;;;;12.10;6.20;;;;;;;;;;5033282;28;20239;-69
2023/12/19 10:13:30;;;;;;;11.20;5.53;;;;;;;;;;5033246;28;20028;-69
2023/12/19 10:16:32;;;;;;;10.48;5.60;;;;;;;;;;5033079;28;20053;-69
2023/12/19 10:18:54;;;;;;;12.27;5.10;;;;;;;;;;5032721;28;20393;-69
2023/12/19 10:21:21;;;;;;;10.90;5.55;;;;;;;;;;5033134;28;20488;-69
2023/12/19 10:23:47;;;;;;;12.18;5.97;;;;;;;;;;5033435;28;20412;-69
2023/12/19 10:26:12;;;;;;;11.38;6.00;;;;;;;;;;5035044;28;20128;-69
2023/12/19 10:28:37;;;;;;;10.15;5.90;;;;;;;;;;5037490;28;20033;-69
2023/12/19 10:31:05;;;;;;;11.75;6.15;;;;;;;;;;5037168;28;20030;-69
2023/12/19 10:33:41;;;;;;;8.93;4.88;;;;;;;;;;5037094;28;20100;-70
2023/12/19 10:36:06;;;;;;;13.70;5.65;;;;;;;;;;5037338;28;20385;-69
2023/12/19 10:38:46;;;;;;;11.05;6.00;;;;;;;;;;5036976;28;20022;-69
2023/12/19 10:41:28;;;;;;;12.48;5.47;;;;;;;;;;5036980;28;20075;-69
2023/12/19 10:43:56;;;;;;;10.13;5.40;;;;;;;;;;5036927;28;20032;-65
2023/12/19 10:46:24;;;;;;;10.43;6.07;;;;;;;;;;5036949;28;20079;-69
2023/12/19 10:48:53;;;;;;;12.38;6.43;;;;;;;;;;5037113;28;20469;-69
2023/12/19 10:51:27;;;;;;;11.52;5.70;;;;;;;;;;5037093;28;20473;-69
2023/12/19 10:53:58;;;;;;;10.60;6.20;;;;;;;;;;5036746;28;20035;-69
2023/12/19 10:56:24;;;;;;;10.30;5.60;;;;;;;;;;5036952;28;20374;-69
2023/12/19 10:58:54;;;;;;;11.25;5.57;;;;;;;;;;5036820;28;20028;-69
2023/12/19 11:01:23;;;;;;;10.07;5.53;;;;;;;;;;5036669;28;20028;-69
2023/12/19 11:03:53;;;;;;;10.73;5.25;;;;;;;;;;5036548;28;20029;-69
2023/12/19 11:06:20;;;;;;;12.18;5.10;;;;;;;;;;5036530;28;20111;-69
2023/12/19 11:08:47;;;;;;;10.82;5.45;;;;;;;;;;5036466;28;20022;-69
2023/12/19 11:11:19;;;;;;;11.73;5.40;;;;;;;;;;5036693;28;20040;-69
2023/12/19 11:13:44;;;;;;;11.30;5.70;;;;;;;;;;5036154;28;20018;-69
2023/12/19 11:16:26;;;;;;;14.85;5.57;;;;;;;;;;5036345;28;20032;-69
2023/12/19 11:19:02;;;;;;;12.75;5.70;;;;;;;;;;5036300;28;20028;-69
2023/12/19 11:21:47;;;;;;;8.00;4.93;;;;;;;;;;5036489;28;20381;-69
2023/12/19 11:24:18;;;;;;;11.10;5.63;;;;;;;;;;5005448;28;20053;-69
2023/12/19 11:26:43;;;;;;;14.43;6.05;;;;;;;;;;5036421;28;20465;-69
2023/12/19 11:29:28;;;;;;;12.07;5.40;;;;;;;;;;5036166;28;20021;-68
2023/12/19 11:31:53;;;;;;;9.45;5.38;;;;;;;;;;5035955;28;20026;-69
2023/12/19 11:34:22;;;;;;;9.97;5.50;;;;;;;;;;5036062;28;20021;-69
2023/12/19 11:36:59;;;;;;;12.00;5.78;;;;;;;;;;5035693;28;20257;-69
2023/12/19 11:39:25;;;;;;;9.73;6.13;;;;;;;;;;5035854;28;20029;-69
2023/12/19 11:41:51;;;;;;;10.80;5.40;;;;;;;;;;5035886;28;20053;-69
2023/12/19 11:44:35;;;;;;;10.35;5.80;;;;;;;;;;5035865;28;20032;-69
2023/12/19 11:47:20;;;;;;;9.88;5.40;;;;;;;;;;5035794;28;20022;-69
2023/12/19 11:49:46;;;;;;;11.73;5.57;;;;;;;;;;5035297;28;20444;-69
2023/12/19 11:52:46;;;;;;;11.45;5.72;;;;;;;;;;5034563;28;20022;-69
2023/12/19 11:55:21;;;;;;;9.32;4.63;;;;;;;;;;4974810;28;20034;-69
2023/12/19 11:57:46;;;;;;;10.30;5.00;;;;;;;;;;5026357;28;20492;-69
2023/12/19 12:00:13;;;;;;;9.97;5.13;;;;;;;;;;5035588;28;20024;-69
2023/12/19 12:02:39;;;;;;;10.52;5.43;;;;;;;;;;5035761;28;20251;-69
2023/12/19 12:05:18;;;;;;;11.23;6.13;;;;;;;;;;5035449;28;20124;-69
2023/12/19 12:07:47;;;;;;;10.57;5.30;;;;;;;;;;5035519;28;20025;-69
2023/12/19 12:10:13;;;;;;;10.75;6.00;;;;;;;;;;5035614;28;20022;-69
2023/12/19 12:12:39;;;;;;;12.10;5.93;;;;;;;;;;5035544;28;20029;-69
2023/12/19 12:15:11;;;;;;;12.00;5.30;;;;;;;;;;5035093;28;20048;-69
2023/12/19 12:17:37;;;;;;;13.95;5.47;;;;;;;;;;5035395;28;20271;-69
2023/12/19 12:20:03;;;;;;;12.32;5.80;;;;;;;;;;5035134;28;20376;-69
2023/12/19 12:22:29;;;;;;;11.45;5.95;;;;;;;;;;5035409;28;20162;-69
2023/12/19 12:24:54;;;;;;;12.32;6.13;;;;;;;;;;5035376;28;20037;-70
2023/12/19 12:27:20;;;;;;;10.27;5.38;;;;;;;;;;5035044;28;20017;-69
2023/12/19 12:29:45;;;;;;;14.43;6.53;;;;;;;;;;5035276;28;20018;-69
2023/12/19 12:32:11;;;;;;;13.80;6.18;;;;;;;;;;5034898;28;20025;-69
2023/12/19 12:34:36;;;;;;;12.40;6.15;;;;;;;;;;5034844;28;20021;-69
2023/12/19 12:37:01;;;;;;;12.95;5.25;;;;;;;;;;5034872;28;20029;-69
2023/12/19 12:39:26;;;;;;;11.25;5.53;;;;;;;;;;5034685;28;20021;-69
2023/12/19 12:41:59;;;;;;;10.68;5.15;;;;;;;;;;5035126;28;20093;-69
2023/12/19 12:44:25;;;;;;;9.23;4.88;;;;;;;;;;5034668;28;20013;-69
2023/12/19 12:46:50;;;;;;;11.48;5.30;;;;;;;;;;5034647;28;20093;-69
2023/12/19 12:49:16;;;;;;;10.47;5.63;;;;;;;;;;5033934;28;20025;-69
2023/12/19 12:51:43;;;;;;;11.55;4.88;;;;;;;;;;5034527;28;20262;-69
2023/12/19 12:54:08;;;;;;;10.68;5.55;;;;;;;;;;5034560;28;20024;-69
2023/12/19 12:56:34;;;;;;;13.02;5.88;;;;;;;;;;5034741;28;20025;-69
2023/12/19 12:59:00;;;;;;;12.48;5.88;;;;;;;;;;5034523;28;20025;-69
2023/12/19 13:01:25;;;;;;;11.20;5.43;;;;;;;;;;5034623;28;20086;-69
2023/12/19 13:04:11;;;;;;;10.68;5.35;;;;;;;;;;5034330;28;20144;-69
2023/12/19 13:06:41;;;;;;;10.32;5.68;;;;;;;;;;5034185;28;20021;-69
2023/12/19 13:09:09;;;;;;;11.48;5.05;;;;;;;;;;5034140;28;20025;-69
2023/12/19 13:11:34;;;;;;;11.23;5.53;;;;;;;;;;5034112;28;20025;-69
2023/12/19 13:14:00;;;;;;;9.70;5.40;;;;;;;;;;5033940;28;20064;-69
2023/12/19 13:16:26;;;;;;;10.27;5.40;;;;;;;;;;5034069;28;20262;-69
2023/12/19 13:18:51;;;;;;;10.35;5.13;;;;;;;;;;5034255;28;20835;-69
2023/12/19 13:21:16;;;;;;;14.25;5.50;;;;;;;;;;5034235;28;20045;-69
2023/12/19 13:23:42;;;;;;;10.23;5.17;;;;;;;;;;5034004;28;20061;-69
2023/12/19 13:26:07;;;;;;;12.87;5.67;;;;;;;;;;5033949;28;20722;-69
2023/12/19 13:28:32;;;;;;;14.93;5.38;;;;;;;;;;5033856;28;20737;-69
2023/12/19 13:30:57;;;;;;;11.80;6.03;;;;;;;;;;5033848;28;20079;-69
2023/12/19 13:33:23;;;;;;;11.23;5.45;;;;;;;;;;5033920;28;20041;-69
2023/12/19 13:35:48;;;;;;;15.02;5.95;;;;;;;;;;5034006;28;20017;-69
2023/12/19 13:38:15;;;;;;;10.90;5.55;;;;;;;;;;5033668;28;20053;-69
2023/12/19 13:40:41;;;;;;;11.98;5.88;;;;;;;;;;5033752;28;20024;-69
2023/12/19 13:43:06;;;;;;;13.60;6.85;;;;;;;;;;5033808;28;20429;-69
2023/12/19 13:45:32;;;;;;;9.87;5.77;;;;;;;;;;5033654;28;20017;-69
2023/12/19 13:48:01;;;;;;;12.55;6.10;;;;;;;;;;5033539;28;20247;-69
2023/12/19 13:50:27;;;;;;;12.27;5.57;;;;;;;;;;5033523;28;20017;-69
2023/12/19 13:52:52;;;;;;;12.68;6.13;;;;;;;;;;5033516;28;20018;-69
2023/12/19 13:55:17;;;;;;;10.65;5.53;;;;;;;;;;5033730;28;20032;-69
2023/12/19 13:57:43;;;;;;;11.77;6.53;;;;;;;;;;5033391;28;20017;-69
2023/12/19 14:00:09;;;;;;;10.07;5.43;;;;;;;;;;5033449;28;20691;-69
2023/12/19 14:02:35;;;;;;;12.00;5.50;;;;;;;;;;5033689;28;20021;-69
2023/12/19 14:05:01;;;;;;;13.20;5.93;;;;;;;;;;5033661;28;20461;-69
2023/12/19 14:07:26;;;;;;;13.02;6.40;;;;;;;;;;5033616;28;20097;-69
2023/12/19 14:09:51;;;;;;;12.73;5.77;;;;;;;;;;5033417;28;20068;-69
2023/12/19 14:12:17;;;;;;;11.75;5.45;;;;;;;;;;5033505;28;20793;-69
2023/12/19 14:14:43;;;;;;;12.38;5.28;;;;;;;;;;5033110;28;20067;-65
2023/12/19 14:17:09;;;;;;;13.18;5.07;;;;;;;;;;5033501;28;20485;-65
2023/12/19 14:19:35;;;;;;;15.35;6.80;;;;;;;;;;5033391;28;20021;-65
2023/12/19 14:22:00;;;;;;;11.18;5.75;;;;;;;;;;5033458;28;20072;-65
2023/12/19 14:24:26;;;;;;;10.60;6.13;;;;;;;;;;5033176;28;20534;-65
2023/12/19 14:26:52;;;;;;;11.90;5.73;;;;;;;;;;5033088;28;20097;-65